CXA372 CYQB-CYQM
Flight info
| Callsign | CXA372 |
|---|---|
| Flight time | 0h 46m |
| Altitude | 33000 |
| Route | CYQB6/24 PINTE DCT HUL |
| Aircraft | A320/M-SDE3FGHIRWY/LB1 |
Departure
| Time | 2026-05-05 00:32 |
|---|---|
| Airport | Quebec Jean Lesage International Airport (CYQB) |
Arrival
| Time | 2026-05-05 01:19 |
|---|---|
| Airport | Greater Moncton Roméo LeBlanc International Airport (CYQM) |
| Time | Latitude | Longitude | Altitude | Speed | Heading |
|---|---|---|---|---|---|
| 2026-05-05 00:14 | 46.79345 | -71.38397 | 244 ft | 0 kts | 135° |
| 2026-05-05 00:24 | 46.79357 | -71.38415 | 244 ft | 4 kts | 132° |
| 2026-05-05 00:24 | 46.79375 | -71.38445 | 244 ft | 4 kts | 124° |
| 2026-05-05 00:25 | 46.79388 | -71.38479 | 244 ft | 4 kts | 105° |
| 2026-05-05 00:25 | 46.79389 | -71.38512 | 244 ft | 2 kts | 47° |
| 2026-05-05 00:25 | 46.79384 | -71.38519 | 244 ft | 0 kts | 45° |
| 2026-05-05 00:28 | 46.79385 | -71.38518 | 244 ft | 2 kts | 45° |
| 2026-05-05 00:28 | 46.79429 | -71.38454 | 244 ft | 13 kts | 44° |
| 2026-05-05 00:29 | 46.79489 | -71.38368 | 244 ft | 11 kts | 44° |
| 2026-05-05 00:29 | 46.79546 | -71.38306 | 243 ft | 10 kts | 20° |
| 2026-05-05 00:29 | 46.79600 | -71.38262 | 243 ft | 8 kts | 44° |
| 2026-05-05 00:29 | 46.79642 | -71.38203 | 243 ft | 9 kts | 44° |
| 2026-05-05 00:30 | 46.79695 | -71.38125 | 243 ft | 12 kts | 47° |
| 2026-05-05 00:30 | 46.79767 | -71.38049 | 243 ft | 10 kts | 15° |
| 2026-05-05 00:30 | 46.79845 | -71.38045 | 244 ft | 12 kts | 0° |
| 2026-05-05 00:30 | 46.79937 | -71.38063 | 245 ft | 15 kts | 328° |
| 2026-05-05 00:31 | 46.79944 | -71.38188 | 245 ft | 15 kts | 227° |
| 2026-05-05 00:31 | 46.79936 | -71.38199 | 245 ft | 0 kts | 226° |
| 2026-05-05 00:31 | 46.79783 | -71.38416 | 245 ft | 70 kts | 223° |
| 2026-05-05 00:31 | 46.79277 | -71.39143 | 246 ft | 133 kts | 224° |
| 2026-05-05 00:32 | 46.78510 | -71.40215 | 516 ft | 156 kts | 222° |
| 2026-05-05 00:32 | 46.77748 | -71.41320 | 1295 ft | 154 kts | 226° |
| 2026-05-05 00:32 | 46.77041 | -71.42421 | 2009 ft | 154 kts | 227° |
| 2026-05-05 00:32 | 46.76608 | -71.43088 | 2272 ft | 154 kts | 227° |
| 2026-05-05 00:33 | 46.75843 | -71.44232 | 2470 ft | 162 kts | 227° |
| 2026-05-05 00:33 | 46.75008 | -71.45528 | 2851 ft | 186 kts | 228° |
| 2026-05-05 00:33 | 46.74024 | -71.46936 | 3259 ft | 210 kts | 216° |
| 2026-05-05 00:33 | 46.72566 | -71.47585 | 3636 ft | 242 kts | 180° |
| 2026-05-05 00:34 | 46.70920 | -71.46665 | 4247 ft | 270 kts | 143° |
| 2026-05-05 00:34 | 46.69801 | -71.44393 | 5073 ft | 285 kts | 116° |
| 2026-05-05 00:34 | 46.69176 | -71.41594 | 5946 ft | 294 kts | 105° |
| 2026-05-05 00:34 | 46.68769 | -71.38658 | 6761 ft | 302 kts | 101° |
| 2026-05-05 00:35 | 46.68406 | -71.35606 | 7590 ft | 308 kts | 100° |
| 2026-05-05 00:35 | 46.68008 | -71.32504 | 8427 ft | 314 kts | 101° |
| 2026-05-05 00:35 | 46.67549 | -71.29353 | 9271 ft | 320 kts | 102° |
| 2026-05-05 00:35 | 46.67032 | -71.26162 | 10067 ft | 327 kts | 103° |
| 2026-05-05 00:36 | 46.66459 | -71.22842 | 10446 ft | 349 kts | 104° |
| 2026-05-05 00:36 | 46.65829 | -71.19321 | 10857 ft | 366 kts | 104° |
| 2026-05-05 00:36 | 46.65175 | -71.15737 | 11549 ft | 373 kts | 104° |
| 2026-05-05 00:36 | 46.64494 | -71.12047 | 12316 ft | 378 kts | 105° |
| 2026-05-05 00:37 | 46.63804 | -71.08312 | 13078 ft | 384 kts | 105° |
| 2026-05-05 00:37 | 46.63112 | -71.04519 | 13808 ft | 389 kts | 104° |
| 2026-05-05 00:37 | 46.62424 | -71.00727 | 14479 ft | 393 kts | 104° |
| 2026-05-05 00:37 | 46.61724 | -70.96861 | 15161 ft | 397 kts | 104° |
| 2026-05-05 00:38 | 46.61017 | -70.92956 | 15846 ft | 400 kts | 104° |
| 2026-05-05 00:38 | 46.60302 | -70.89023 | 16532 ft | 404 kts | 104° |
| 2026-05-05 00:38 | 46.59572 | -70.85044 | 17199 ft | 408 kts | 104° |
| 2026-05-05 00:38 | 46.58844 | -70.81090 | 17871 ft | 412 kts | 104° |
| 2026-05-05 00:39 | 46.58098 | -70.77043 | 18445 ft | 416 kts | 104° |
| 2026-05-05 00:39 | 46.57346 | -70.72954 | 19011 ft | 420 kts | 104° |
| 2026-05-05 00:39 | 46.56589 | -70.68836 | 19581 ft | 424 kts | 104° |
| 2026-05-05 00:39 | 46.55819 | -70.64669 | 20138 ft | 428 kts | 104° |
| 2026-05-05 00:40 | 46.55049 | -70.60516 | 20689 ft | 432 kts | 104° |
| 2026-05-05 00:40 | 46.54259 | -70.56280 | 21242 ft | 436 kts | 104° |
| 2026-05-05 00:40 | 46.53460 | -70.52000 | 21798 ft | 440 kts | 104° |
| 2026-05-05 00:40 | 46.52651 | -70.47675 | 22357 ft | 444 kts | 103° |
| 2026-05-05 00:41 | 46.51838 | -70.43325 | 22909 ft | 448 kts | 103° |
| 2026-05-05 00:41 | 46.51017 | -70.38934 | 23434 ft | 452 kts | 103° |
| 2026-05-05 00:41 | 46.50193 | -70.34549 | 23872 ft | 455 kts | 103° |
| 2026-05-05 00:41 | 46.49634 | -70.31583 | 24154 ft | 458 kts | 103° |
| 2026-05-05 00:42 | 46.48784 | -70.27102 | 24576 ft | 462 kts | 103° |
| 2026-05-05 00:42 | 46.47927 | -70.22584 | 24995 ft | 465 kts | 103° |
| 2026-05-05 00:42 | 46.47064 | -70.18038 | 25403 ft | 469 kts | 103° |
| 2026-05-05 00:42 | 46.45909 | -70.11960 | 25927 ft | 473 kts | 103° |
| 2026-05-05 00:43 | 46.45324 | -70.08893 | 26178 ft | 475 kts | 103° |
| 2026-05-05 00:43 | 46.44436 | -70.04244 | 26568 ft | 478 kts | 103° |
| 2026-05-05 00:43 | 46.43574 | -69.99549 | 26949 ft | 481 kts | 102° |
| 2026-05-05 00:43 | 46.42748 | -69.94820 | 27318 ft | 485 kts | 101° |
| 2026-05-05 00:44 | 46.41940 | -69.90055 | 27692 ft | 488 kts | 101° |
| 2026-05-05 00:44 | 46.41144 | -69.85319 | 28058 ft | 491 kts | 100° |
| 2026-05-05 00:44 | 46.40326 | -69.80479 | 28415 ft | 494 kts | 101° |
| 2026-05-05 00:44 | 46.39496 | -69.75637 | 28773 ft | 497 kts | 101° |
| 2026-05-05 00:45 | 46.38643 | -69.70746 | 29120 ft | 500 kts | 101° |
| 2026-05-05 00:45 | 46.37784 | -69.65889 | 29453 ft | 503 kts | 101° |
| 2026-05-05 00:45 | 46.36906 | -69.60968 | 29781 ft | 506 kts | 101° |
| 2026-05-05 00:45 | 46.36020 | -69.56021 | 30073 ft | 508 kts | 101° |
| 2026-05-05 00:46 | 46.35143 | -69.51107 | 30346 ft | 510 kts | 101° |
| 2026-05-05 00:46 | 46.34252 | -69.46102 | 30629 ft | 512 kts | 101° |
| 2026-05-05 00:46 | 46.33363 | -69.41093 | 30906 ft | 514 kts | 101° |
| 2026-05-05 00:46 | 46.32463 | -69.36046 | 31176 ft | 515 kts | 101° |
| 2026-05-05 00:47 | 46.31557 | -69.31011 | 31440 ft | 517 kts | 101° |
| 2026-05-05 00:47 | 46.30661 | -69.26046 | 31813 ft | 516 kts | 101° |
| 2026-05-05 00:47 | 46.29752 | -69.21013 | 32196 ft | 514 kts | 101° |
| 2026-05-05 00:47 | 46.28843 | -69.15994 | 32572 ft | 513 kts | 101° |
| 2026-05-05 00:48 | 46.27938 | -69.10997 | 32782 ft | 513 kts | 101° |
| 2026-05-05 00:48 | 46.27051 | -69.06119 | 32816 ft | 500 kts | 101° |
| 2026-05-05 00:48 | 46.26166 | -69.01277 | 32804 ft | 494 kts | 101° |
| 2026-05-05 00:49 | 46.24421 | -68.91740 | 32808 ft | 491 kts | 101° |
| 2026-05-05 00:49 | 46.22675 | -68.82236 | 32817 ft | 491 kts | 101° |
| 2026-05-05 00:50 | 46.20913 | -68.72671 | 32812 ft | 492 kts | 101° |
| 2026-05-05 00:50 | 46.19137 | -68.63119 | 32814 ft | 492 kts | 101° |
| 2026-05-05 00:51 | 46.17355 | -68.53606 | 32826 ft | 492 kts | 101° |
| 2026-05-05 00:51 | 46.15564 | -68.44072 | 32832 ft | 491 kts | 101° |
| 2026-05-05 00:52 | 46.13776 | -68.34591 | 32836 ft | 491 kts | 101° |
| 2026-05-05 00:52 | 46.11972 | -68.25119 | 32825 ft | 491 kts | 101° |
| 2026-05-05 00:53 | 46.10154 | -68.15595 | 32803 ft | 491 kts | 102° |
| 2026-05-05 00:53 | 46.08345 | -68.06133 | 32792 ft | 491 kts | 102° |
| 2026-05-05 00:54 | 46.06514 | -67.96632 | 32784 ft | 491 kts | 102° |
| 2026-05-05 00:54 | 46.04745 | -67.87163 | 32780 ft | 489 kts | 97° |
| 2026-05-05 00:55 | 46.04367 | -67.77526 | 32777 ft | 475 kts | 78° |
| 2026-05-05 00:55 | 46.05053 | -67.68111 | 32777 ft | 475 kts | 78° |
| 2026-05-05 00:56 | 46.05701 | -67.58608 | 32781 ft | 475 kts | 78° |
| 2026-05-05 00:56 | 46.06332 | -67.49179 | 32788 ft | 475 kts | 78° |
| 2026-05-05 00:57 | 46.06969 | -67.39702 | 32793 ft | 475 kts | 78° |
| 2026-05-05 00:57 | 46.07609 | -67.30275 | 32796 ft | 474 kts | 78° |
| 2026-05-05 00:58 | 46.08243 | -67.20787 | 32794 ft | 474 kts | 79° |
| 2026-05-05 00:58 | 46.08858 | -67.11378 | 32792 ft | 474 kts | 79° |
| 2026-05-05 00:59 | 46.09458 | -67.01930 | 32170 ft | 472 kts | 78° |
| 2026-05-05 00:59 | 46.09754 | -66.97219 | 31574 ft | 470 kts | 78° |
| 2026-05-05 00:59 | 46.10049 | -66.92526 | 30996 ft | 469 kts | 77° |
| 2026-05-05 00:59 | 46.10339 | -66.87892 | 30430 ft | 468 kts | 76° |
| 2026-05-05 01:00 | 46.10631 | -66.83204 | 29849 ft | 467 kts | 76° |
| 2026-05-05 01:00 | 46.10918 | -66.78601 | 29241 ft | 465 kts | 76° |
| 2026-05-05 01:00 | 46.11196 | -66.74080 | 28723 ft | 461 kts | 76° |
| 2026-05-05 01:00 | 46.11477 | -66.69471 | 28179 ft | 458 kts | 76° |
| 2026-05-05 01:01 | 46.11752 | -66.64909 | 27660 ft | 455 kts | 76° |
| 2026-05-05 01:01 | 46.12028 | -66.60353 | 27137 ft | 453 kts | 76° |
| 2026-05-05 01:01 | 46.12299 | -66.55885 | 26636 ft | 451 kts | 76° |
| 2026-05-05 01:01 | 46.12570 | -66.51380 | 26111 ft | 450 kts | 76° |
| 2026-05-05 01:02 | 46.12840 | -66.46866 | 25585 ft | 449 kts | 76° |
| 2026-05-05 01:02 | 46.13101 | -66.42432 | 25061 ft | 449 kts | 77° |
| 2026-05-05 01:02 | 46.13364 | -66.37932 | 24508 ft | 449 kts | 77° |
| 2026-05-05 01:02 | 46.13625 | -66.33430 | 23942 ft | 449 kts | 77° |
| 2026-05-05 01:03 | 46.13885 | -66.28925 | 23364 ft | 450 kts | 77° |
| 2026-05-05 01:03 | 46.14139 | -66.24453 | 22721 ft | 451 kts | 77° |
| 2026-05-05 01:03 | 46.14392 | -66.19951 | 22228 ft | 447 kts | 78° |
| 2026-05-05 01:03 | 46.14642 | -66.15482 | 21654 ft | 446 kts | 78° |
| 2026-05-05 01:04 | 46.14887 | -66.11046 | 21322 ft | 439 kts | 79° |
| 2026-05-05 01:04 | 46.15360 | -66.02381 | 20400 ft | 431 kts | 79° |
| 2026-05-05 01:04 | 46.15597 | -65.98080 | 19885 ft | 424 kts | 80° |
| 2026-05-05 01:05 | 46.15829 | -65.93857 | 19094 ft | 418 kts | 81° |
| 2026-05-05 01:05 | 46.16051 | -65.89739 | 18393 ft | 411 kts | 81° |
| 2026-05-05 01:05 | 46.16266 | -65.85653 | 17764 ft | 401 kts | 82° |
| 2026-05-05 01:05 | 46.16467 | -65.81786 | 17544 ft | 381 kts | 82° |
| 2026-05-05 01:06 | 46.16665 | -65.78025 | 17092 ft | 372 kts | 82° |
| 2026-05-05 01:06 | 46.16868 | -65.74292 | 16631 ft | 372 kts | 82° |
| 2026-05-05 01:06 | 46.17071 | -65.70563 | 16174 ft | 372 kts | 82° |
| 2026-05-05 01:06 | 46.17273 | -65.66822 | 15720 ft | 373 kts | 82° |
| 2026-05-05 01:07 | 46.17469 | -65.63141 | 15278 ft | 373 kts | 82° |
| 2026-05-05 01:07 | 46.17663 | -65.59407 | 14821 ft | 373 kts | 82° |
| 2026-05-05 01:07 | 46.17854 | -65.55660 | 14365 ft | 373 kts | 83° |
| 2026-05-05 01:07 | 46.18044 | -65.51918 | 13900 ft | 373 kts | 83° |
| 2026-05-05 01:08 | 46.18228 | -65.48222 | 13440 ft | 373 kts | 83° |
| 2026-05-05 01:08 | 46.18412 | -65.44497 | 13014 ft | 369 kts | 83° |
| 2026-05-05 01:08 | 46.18596 | -65.40788 | 12553 ft | 367 kts | 83° |
| 2026-05-05 01:08 | 46.18778 | -65.37096 | 12063 ft | 366 kts | 83° |
| 2026-05-05 01:09 | 46.18953 | -65.33482 | 11597 ft | 365 kts | 83° |
| 2026-05-05 01:09 | 46.19131 | -65.29872 | 11439 ft | 353 kts | 84° |
| 2026-05-05 01:09 | 46.19299 | -65.26365 | 11290 ft | 342 kts | 84° |
| 2026-05-05 01:09 | 46.19459 | -65.23005 | 10991 ft | 338 kts | 84° |
| 2026-05-05 01:10 | 46.19625 | -65.19620 | 10645 ft | 335 kts | 84° |
| 2026-05-05 01:10 | 46.19789 | -65.16260 | 10278 ft | 333 kts | 84° |
| 2026-05-05 01:10 | 46.19946 | -65.12955 | 9913 ft | 331 kts | 84° |
| 2026-05-05 01:10 | 46.20102 | -65.09649 | 9495 ft | 327 kts | 84° |
| 2026-05-05 01:11 | 46.20255 | -65.06386 | 8796 ft | 323 kts | 84° |
| 2026-05-05 01:11 | 46.20401 | -65.03195 | 8427 ft | 308 kts | 84° |
| 2026-05-05 01:11 | 46.20534 | -65.00240 | 8289 ft | 287 kts | 84° |
| 2026-05-05 01:11 | 46.20660 | -64.97450 | 8076 ft | 271 kts | 84° |
| 2026-05-05 01:12 | 46.20785 | -64.94752 | 7657 ft | 266 kts | 84° |
| 2026-05-05 01:12 | 46.20906 | -64.92129 | 7215 ft | 262 kts | 84° |
| 2026-05-05 01:12 | 46.21025 | -64.89495 | 6671 ft | 263 kts | 85° |
| 2026-05-05 01:12 | 46.21145 | -64.86807 | 5956 ft | 270 kts | 84° |
| 2026-05-05 01:13 | 46.21268 | -64.84071 | 5310 ft | 272 kts | 84° |
| 2026-05-05 01:13 | 46.21386 | -64.81437 | 5099 ft | 257 kts | 84° |
| 2026-05-05 01:13 | 46.21612 | -64.78923 | 4981 ft | 251 kts | 74° |
| 2026-05-05 01:13 | 46.22000 | -64.76465 | 4560 ft | 248 kts | 74° |
| 2026-05-05 01:14 | 46.22372 | -64.74079 | 4217 ft | 240 kts | 74° |
| 2026-05-05 01:14 | 46.22731 | -64.71767 | 3941 ft | 230 kts | 74° |
| 2026-05-05 01:14 | 46.23068 | -64.69585 | 3628 ft | 219 kts | 74° |
| 2026-05-05 01:14 | 46.23398 | -64.67455 | 3323 ft | 214 kts | 74° |
| 2026-05-05 01:15 | 46.23499 | -64.65335 | 3045 ft | 215 kts | 97° |
| 2026-05-05 01:15 | 46.23072 | -64.63287 | 2762 ft | 208 kts | 121° |
| 2026-05-05 01:15 | 46.22222 | -64.61652 | 2500 ft | 198 kts | 143° |
| 2026-05-05 01:15 | 46.21122 | -64.60562 | 2257 ft | 189 kts | 164° |
| 2026-05-05 01:16 | 46.19894 | -64.60040 | 2004 ft | 179 kts | 182° |
| 2026-05-05 01:16 | 46.18693 | -64.60066 | 1771 ft | 167 kts | 199° |
| 2026-05-05 01:16 | 46.17656 | -64.60513 | 1560 ft | 146 kts | 214° |
| 2026-05-05 01:16 | 46.16824 | -64.61225 | 1385 ft | 133 kts | 226° |
| 2026-05-05 01:17 | 46.16150 | -64.62102 | 1197 ft | 130 kts | 229° |
| 2026-05-05 01:17 | 46.15477 | -64.62998 | 1044 ft | 131 kts | 228° |
| 2026-05-05 01:17 | 46.14798 | -64.63893 | 857 ft | 133 kts | 225° |
| 2026-05-05 01:17 | 46.14112 | -64.64794 | 668 ft | 134 kts | 224° |
| 2026-05-05 01:18 | 46.13419 | -64.65707 | 490 ft | 134 kts | 225° |
| 2026-05-05 01:18 | 46.12749 | -64.66602 | 306 ft | 133 kts | 224° |
| 2026-05-05 01:18 | 46.12107 | -64.67439 | 223 ft | 104 kts | 226° |
| 2026-05-05 01:18 | 46.11704 | -64.67974 | 220 ft | 58 kts | 218° |
| 2026-05-05 01:19 | 46.11457 | -64.68299 | 226 ft | 37 kts | 223° |
| 2026-05-05 01:19 | 46.11333 | -64.68507 | 228 ft | 20 kts | 261° |
| 2026-05-05 01:19 | 46.11392 | -64.68627 | 225 ft | 2 kts | 339° |
| 2026-05-05 01:19 | 46.11406 | -64.68630 | 225 ft | 0 kts | 349° |
| 2026-05-05 01:20 | 46.11407 | -64.68630 | 225 ft | 1 kts | 349° |
| 2026-05-05 01:20 | 46.11433 | -64.68631 | 225 ft | 6 kts | 4° |
| 2026-05-05 01:20 | 46.11486 | -64.68647 | 224 ft | 9 kts | 316° |
| 2026-05-05 01:20 | 46.11528 | -64.68720 | 225 ft | 3 kts | 313° |
| 2026-05-05 01:21 | 46.11542 | -64.68742 | 225 ft | 2 kts | 312° |
| 2026-05-05 01:21 | 46.11551 | -64.68756 | 227 ft | 1 kts | 312° |
| 2026-05-05 01:21 | 46.11555 | -64.68763 | 226 ft | 0 kts | 312° |
| 2026-05-05 01:21 | 46.11566 | -64.68779 | 225 ft | 0 kts | 312° |